Time;durP1;ratioP1;P1;durP2;ratioP2;P2;SDS_P1;SDS_P2;PMS_P1;PMS_P2;Temp;Humidity;BMP_temperature;BMP_pressure;BME280_temperature;BME280_humidity;BME280_pressure;Samples;Min_cycle;Max_cycle;Signal;HPM_P1;HPM_P2
2023/02/07 00:01:45;;;;;;;33.93;17.70;;;-1.00;99.90;;;;;;5033018;28;20456;-63
2023/02/07 00:04:12;;;;;;;28.20;16.90;;;-0.90;99.90;;;;;;5033355;28;20850;-63
2023/02/07 00:06:41;;;;;;;32.10;18.57;;;-1.00;99.90;;;;;;5033400;28;20808;-63
2023/02/07 00:09:09;;;;;;;31.90;17.20;;;-0.90;99.90;;;;;;5031750;28;20855;-63
2023/02/07 06:53:35;;;;;;;28.80;17.00;;;-3.10;1.00;;;;;;4311901;28;20752;-66
2023/02/07 06:56:02;;;;;;;25.53;16.00;;;-3.10;1.00;;;;;;5015381;28;20480;-66
2023/02/07 06:58:30;;;;;;;25.10;16.10;;;-3.20;99.90;;;;;;5015553;28;20478;-65
2023/02/07 07:00:58;;;;;;;22.90;15.20;;;-3.30;1.00;;;;;;5015112;28;20496;-66
2023/02/07 07:03:27;;;;;;;22.37;14.60;;;-3.10;1.00;;;;;;5014063;28;20486;-66
2023/02/07 07:05:55;;;;;;;22.43;14.70;;;-3.10;19.70;;;;;;5013999;28;20884;-66
2023/02/07 07:08:23;;;;;;;25.90;15.17;;;-3.10;1.00;;;;;;5013266;28;20478;-66
2023/02/07 07:10:52;;;;;;;23.10;16.23;;;-3.20;1.00;;;;;;5013692;28;20524;-66
2023/02/07 07:13:20;;;;;;;26.47;17.50;;;-3.20;99.90;;;;;;5014091;28;20464;-66
2023/02/07 07:15:47;;;;;;;36.60;19.73;;;-3.20;99.90;;;;;;5013693;28;20486;-66
2023/02/07 07:18:15;;;;;;;29.40;20.77;;;-3.20;1.00;;;;;;5015154;28;20496;-66
2023/02/07 07:20:42;;;;;;;32.43;20.00;;;-3.20;1.00;;;;;;5020049;28;20819;-66
2023/02/07 07:23:09;;;;;;;25.37;18.27;;;-3.10;99.90;;;;;;5034325;28;20502;-66
2023/02/07 07:25:37;;;;;;;32.83;17.77;;;-3.30;1.00;;;;;;5035238;28;20914;-66
2023/02/07 07:28:07;;;;;;;28.13;16.90;;;-3.20;99.90;;;;;;5034421;28;20442;-66
2023/02/07 07:30:35;;;;;;;24.30;17.23;;;-3.20;1.00;;;;;;5034777;27;20570;-66
2023/02/07 07:33:02;;;;;;;29.47;20.00;;;-3.20;99.90;;;;;;5034805;28;20481;-66
2023/02/07 07:35:30;;;;;;;32.40;16.80;;;-3.20;99.90;;;;;;5034998;28;20957;-66
2023/02/07 07:37:57;;;;;;;22.10;14.47;;;-3.20;1.00;;;;;;5034530;28;20463;-66
2023/02/07 07:40:25;;;;;;;20.07;13.33;;;-3.20;1.00;;;;;;5033773;28;20891;-65
2023/02/07 07:42:52;;;;;;;22.40;14.10;;;-3.10;1.00;;;;;;5034796;28;20568;-66
2023/02/07 07:45:22;;;;;;;15.90;12.20;;;-3.10;7.40;;;;;;5034423;28;20553;-65
2023/02/07 07:47:50;;;;;;;20.00;12.67;;;-2.90;99.90;;;;;;5033650;28;20886;-65
2023/02/07 07:50:19;;;;;;;18.30;12.50;;;-2.80;99.90;;;;;;5034792;28;20540;-66
2023/02/07 07:52:46;;;;;;;17.97;12.50;;;-2.80;22.80;;;;;;5034336;28;20502;-66
2023/02/07 07:55:14;;;;;;;20.07;13.30;;;-2.70;1.00;;;;;;5034694;27;20503;-65
2023/02/07 07:57:42;;;;;;;20.23;12.70;;;-2.70;1.00;;;;;;5052919;28;20923;-65
2023/02/07 08:00:10;;;;;;;18.73;12.80;;;-2.70;1.00;;;;;;5032761;28;20516;-65
2023/02/07 08:02:40;;;;;;;19.17;13.03;;;-2.70;99.90;;;;;;5032628;28;20538;-66
2023/02/07 08:05:09;;;;;;;22.23;13.10;;;-2.60;99.90;;;;;;5033312;28;20873;-65
2023/02/07 08:07:39;;;;;;;21.10;13.13;;;-2.50;1.00;;;;;;5033614;28;20459;-65
2023/02/07 08:10:07;;;;;;;21.00;14.67;;;-2.30;99.90;;;;;;5032480;28;20473;-65
2023/02/07 08:12:35;;;;;;;17.83;13.40;;;-2.30;99.90;;;;;;5033774;28;20497;-66
2023/02/07 08:15:06;;;;;;;21.73;15.37;;;-2.20;99.90;;;;;;5034214;28;20437;-65
2023/02/07 08:17:36;;;;;;;32.67;15.30;;;-2.10;99.90;;;;;;5034636;28;20872;-66
2023/02/07 08:20:07;;;;;;;19.57;14.10;;;-1.90;99.90;;;;;;5034107;28;20463;-65
2023/02/07 08:22:50;;;;;;;20.10;14.00;;;-1.70;1.00;;;;;;5014526;28;20464;-65
2023/02/07 08:25:18;;;;;;;19.93;12.90;;;-1.40;1.00;;;;;;5013029;28;20487;-64
2023/02/07 08:27:46;;;;;;;18.47;12.00;;;-1.10;1.00;;;;;;5014323;28;20466;-65
2023/02/07 08:30:17;;;;;;;21.03;12.50;;;-0.80;1.00;;;;;;5021060;28;20460;-65
2023/02/07 08:32:45;;;;;;;20.70;11.50;;;-0.40;99.90;;;;;;5033750;28;20492;-64
2023/02/07 08:35:14;;;;;;;19.83;12.90;;;-0.20;99.90;;;;;;5037166;28;20478;-62
2023/02/07 08:37:42;;;;;;;17.53;12.00;;;0.00;51.20;;;;;;5022713;28;20571;-60
2023/02/07 08:40:10;;;;;;;16.30;11.17;;;0.20;1.00;;;;;;5015691;28;20446;-58
2023/02/07 08:42:44;;;;;;;14.40;10.87;;;0.50;1.00;;;;;;5017444;28;20831;-54
2023/02/07 08:45:16;;;;;;;13.70;9.73;;;0.70;99.90;;;;;;5017668;28;20468;-59
2023/02/07 08:47:46;;;;;;;15.10;10.90;;;0.90;99.90;;;;;;5017989;28;20470;-59
2023/02/07 08:50:24;;;;;;;18.53;10.53;;;1.10;99.90;;;;;;5017326;28;20525;-56
2023/02/07 08:52:51;;;;;;;14.43;10.43;;;1.20;99.90;;;;;;5017339;28;20466;-53
2023/02/07 08:55:19;;;;;;;14.23;10.20;;;1.30;99.90;;;;;;5017514;28;20484;-52
2023/02/07 08:57:48;;;;;;;15.43;10.30;;;1.50;41.80;;;;;;5027842;28;20467;-58
2023/02/07 09:00:17;;;;;;;23.03;16.87;;;1.80;1.00;;;;;;5035257;28;20523;-57
2023/02/07 09:02:48;;;;;;;15.23;11.23;;;2.30;1.00;;;;;;5036642;28;20451;-58
2023/02/07 09:05:19;;;;;;;21.93;15.43;;;2.40;1.00;;;;;;5037180;28;20904;-58
2023/02/07 09:07:47;;;;;;;16.00;11.50;;;2.40;1.00;;;;;;5036018;28;20438;-57
2023/02/07 09:10:17;;;;;;;16.07;10.90;;;2.60;1.00;;;;;;5036220;28;20487;-59
2023/02/07 09:12:45;;;;;;;14.67;10.67;;;2.90;1.00;;;;;;5036108;28;20507;-60
2023/02/07 09:15:15;;;;;;;9.93;8.33;;;2.80;1.00;;;;;;5036128;28;20491;-59
2023/02/07 09:17:43;;;;;;;14.43;7.40;;;3.10;1.00;;;;;;5032453;28;20459;-57
2023/02/07 09:20:11;;;;;;;9.47;7.77;;;3.50;1.00;;;;;;5035774;28;20804;-59
2023/02/07 09:25:21;;;;;;;14.23;8.30;;;4.00;1.00;;;;;;5034933;28;20455;-59
2023/02/07 09:27:48;;;;;;;11.47;7.20;;;4.30;1.00;;;;;;5034801;28;20501;-61
2023/02/07 09:30:15;;;;;;;8.73;7.33;;;4.40;99.90;;;;;;5033615;28;20553;-60
2023/02/07 09:32:43;;;;;;;7.83;6.27;;;4.60;99.90;;;;;;5033202;28;20495;-60
2023/02/07 09:35:10;;;;;;;7.70;6.13;;;4.60;99.90;;;;;;5032534;28;20459;-60
2023/02/07 09:37:39;;;;;;;8.03;5.77;;;4.60;99.90;;;;;;5032641;28;20557;-61
2023/02/07 09:40:07;;;;;;;8.00;6.73;;;4.80;99.90;;;;;;5033114;28;20473;-60
2023/02/07 09:42:41;;;;;;;8.93;7.27;;;4.70;99.90;;;;;;5033052;28;20517;-61
2023/02/07 09:45:12;;;;;;;15.43;7.57;;;4.80;99.90;;;;;;5031962;28;20502;-62
2023/02/07 09:47:42;;;;;;;8.47;6.97;;;4.40;99.90;;;;;;5032181;28;20666;-62
2023/02/07 09:50:15;;;;;;;9.30;7.80;;;4.10;99.90;;;;;;5032870;28;20546;-62
2023/02/07 09:52:48;;;;;;;10.70;7.47;;;3.80;99.90;;;;;;5032736;28;20527;-62
2023/02/07 09:55:20;;;;;;;10.33;7.40;;;4.30;99.90;;;;;;5034213;28;20964;-61
2023/02/07 09:57:51;;;;;;;12.57;7.37;;;4.90;99.90;;;;;;5034367;28;20491;-63
2023/02/07 10:00:26;;;;;;;9.33;7.10;;;5.30;99.90;;;;;;5034563;28;20555;-63
2023/02/07 10:02:57;;;;;;;8.67;7.37;;;5.50;99.90;;;;;;5034758;28;20498;-63
2023/02/07 10:05:30;;;;;;;7.87;6.90;;;5.80;99.90;;;;;;5035848;28;20545;-63
2023/02/07 10:07:58;;;;;;;7.97;6.70;;;5.50;99.90;;;;;;5035487;28;20464;-63
2023/02/07 10:10:34;;;;;;;9.53;6.67;;;5.50;99.90;;;;;;5035502;28;20467;-64
2023/02/07 10:13:23;;;;;;;9.73;6.77;;;5.50;99.90;;;;;;5035924;28;20836;-64
2023/02/07 10:16:02;;;;;;;6.60;5.90;;;5.90;99.90;;;;;;5034919;28;20483;-64
2023/02/07 10:18:42;;;;;;;7.60;6.20;;;6.30;99.90;;;;;;5035256;28;20549;-64
2023/02/07 10:21:18;;;;;;;6.00;5.40;;;6.20;99.90;;;;;;5035703;28;20550;-64
2023/02/07 10:24:07;;;;;;;6.10;5.23;;;6.10;99.90;;;;;;5033373;28;20459;-63
2023/02/07 10:26:37;;;;;;;7.63;5.90;;;6.20;99.90;;;;;;5031330;28;20562;-63
2023/02/07 10:29:32;;;;;;;6.50;5.90;;;6.20;99.90;;;;;;5027738;28;20479;-63
2023/02/07 10:32:08;;;;;;;7.10;5.87;;;6.20;99.90;;;;;;4994180;28;20582;-63
2023/02/07 10:34:39;;;;;;;6.13;5.53;;;6.20;99.90;;;;;;5031362;28;20553;-63
2023/02/07 10:37:18;;;;;;;6.67;5.67;;;6.40;99.90;;;;;;5032088;28;20573;-63
2023/02/07 10:39:53;;;;;;;6.50;5.50;;;6.80;99.90;;;;;;5032458;28;20442;-63
2023/02/07 10:42:20;;;;;;;7.10;6.40;;;6.80;99.90;;;;;;5034430;28;20458;-62
2023/02/07 10:44:48;;;;;;;6.50;5.80;;;6.90;99.90;;;;;;5035452;28;20494;-63
2023/02/07 10:47:17;;;;;;;6.40;5.60;;;7.00;99.90;;;;;;5033766;28;20449;-63
2023/02/07 10:49:48;;;;;;;6.40;5.63;;;6.90;99.90;;;;;;5031605;28;20474;-63
2023/02/07 10:52:27;;;;;;;7.10;5.57;;;6.90;99.90;;;;;;5033567;28;20951;-62
2023/02/07 10:54:58;;;;;;;6.13;5.60;;;7.10;99.90;;;;;;5032725;28;20461;-62
2023/02/07 10:57:27;;;;;;;6.77;5.73;;;6.70;99.90;;;;;;5031422;28;20509;-62
2023/02/07 11:00:05;;;;;;;7.17;6.47;;;7.10;99.90;;;;;;5033222;28;20582;-62
2023/02/07 11:02:51;;;;;;;7.67;5.40;;;7.50;99.90;;;;;;5032507;28;20482;-62
2023/02/07 11:05:38;;;;;;;6.43;5.83;;;7.80;99.90;;;;;;5030881;28;20856;-62
2023/02/07 11:08:17;;;;;;;9.33;6.20;;;8.10;99.90;;;;;;5030944;28;20460;-63
2023/02/07 11:10:47;;;;;;;6.50;5.80;;;7.90;99.90;;;;;;5030558;28;20551;-63
2023/02/07 11:13:19;;;;;;;7.03;5.93;;;8.00;99.90;;;;;;5032813;28;21076;-63
2023/02/07 11:15:50;;;;;;;6.30;5.70;;;8.30;99.90;;;;;;5029777;28;20503;-63
2023/02/07 11:18:53;;;;;;;6.80;6.07;;;8.30;99.90;;;;;;5031808;28;20509;-63
2023/02/07 11:21:27;;;;;;;6.63;5.83;;;8.10;99.90;;;;;;4981678;28;20822;-63
2023/02/07 11:23:57;;;;;;;7.20;6.50;;;7.90;99.90;;;;;;5025630;28;20542;-63
2023/02/07 11:26:28;;;;;;;6.93;6.13;;;8.20;99.90;;;;;;5030360;28;20487;-63
2023/02/07 11:29:04;;;;;;;7.90;5.70;;;8.50;99.90;;;;;;5032518;28;20459;-63
2023/02/07 11:31:35;;;;;;;6.60;5.97;;;8.70;99.90;;;;;;5031037;28;20567;-63
2023/02/07 11:34:23;;;;;;;8.53;6.73;;;8.60;99.90;;;;;;5028737;28;20475;-63
2023/02/07 11:36:53;;;;;;;7.70;5.97;;;8.70;99.90;;;;;;5029789;28;20545;-64
2023/02/07 11:39:22;;;;;;;8.77;7.10;;;9.10;99.90;;;;;;5031993;28;20502;-63
2023/02/07 11:41:58;;;;;;;7.13;6.43;;;9.20;99.90;;;;;;5026570;28;20525;-63
2023/02/07 11:44:27;;;;;;;8.53;7.30;;;9.40;99.90;;;;;;5029409;28;20546;-62
2023/02/07 11:47:05;;;;;;;9.07;6.57;;;9.30;99.90;;;;;;5031341;28;20562;-62
2023/02/07 11:49:42;;;;;;;7.30;6.60;;;9.40;99.90;;;;;;5029090;28;20546;-62
2023/02/07 11:52:10;;;;;;;7.30;6.60;;;9.30;99.90;;;;;;5029589;28;20517;-62
2023/02/07 11:54:39;;;;;;;10.77;8.90;;;9.40;99.90;;;;;;5031865;28;20545;-62
2023/02/07 11:57:13;;;;;;;8.43;7.60;;;9.70;99.90;;;;;;5033720;28;20540;-62
2023/02/07 11:59:48;;;;;;;9.70;6.47;;;9.90;99.90;;;;;;5031048;28;20554;-62
2023/02/07 12:02:20;;;;;;;9.33;7.83;;;10.10;99.90;;;;;;5030668;28;20521;-62
2023/02/07 12:04:48;;;;;;;6.90;6.20;;;10.30;99.90;;;;;;5030767;28;20911;-62
2023/02/07 12:07:20;;;;;;;8.00;7.20;;;10.20;99.90;;;;;;5030701;28;20468;-62
2023/02/07 12:09:50;;;;;;;7.33;6.67;;;10.40;99.90;;;;;;5033298;28;20864;-62
2023/02/07 12:12:22;;;;;;;7.70;6.30;;;10.60;99.90;;;;;;5034885;28;20534;-62
2023/02/07 12:14:54;;;;;;;7.13;6.43;;;10.80;99.90;;;;;;5034888;28;20557;-62
2023/02/07 12:17:27;;;;;;;11.17;9.97;;;10.50;99.90;;;;;;5034377;28;20839;-62
2023/02/07 12:19:58;;;;;;;7.67;6.90;;;10.40;99.90;;;;;;5034131;28;20774;-62
2023/02/07 12:22:33;;;;;;;7.00;6.40;;;10.70;99.90;;;;;;5034866;28;20466;-61
2023/02/07 12:25:05;;;;;;;7.30;6.60;;;11.00;99.90;;;;;;5028611;28;20532;-61
2023/02/07 12:27:39;;;;;;;7.13;6.47;;;10.90;99.90;;;;;;5034164;28;20515;-61
2023/02/07 12:30:16;;;;;;;7.43;6.53;;;10.30;99.90;;;;;;5034327;28;20469;-61
2023/02/07 12:32:50;;;;;;;6.63;5.93;;;9.50;99.90;;;;;;5036590;28;20497;-60
2023/02/07 12:35:24;;;;;;;7.73;6.80;;;9.60;99.90;;;;;;5036153;28;20524;-61
2023/02/07 12:37:59;;;;;;;6.90;6.30;;;10.20;99.90;;;;;;5032807;28;20490;-61
2023/02/07 12:40:33;;;;;;;7.20;6.60;;;10.70;99.90;;;;;;5035956;28;20458;-60
2023/02/07 12:43:07;;;;;;;7.60;6.90;;;10.50;99.90;;;;;;5032527;28;20470;-61
2023/02/07 12:46:01;;;;;;;8.00;7.27;;;10.70;99.90;;;;;;5031651;28;20470;-59
2023/02/07 12:48:45;;;;;;;7.17;6.53;;;11.00;99.90;;;;;;5031155;28;20465;-59
2023/02/07 12:51:26;;;;;;;7.80;7.00;;;11.10;99.90;;;;;;5032282;28;20466;-61
2023/02/07 12:54:11;;;;;;;8.33;7.33;;;10.40;99.90;;;;;;5038372;27;20966;-61
2023/02/07 12:56:45;;;;;;;8.73;7.10;;;10.80;99.90;;;;;;5033970;28;20458;-60
2023/02/07 12:59:25;;;;;;;7.70;6.70;;;10.70;99.90;;;;;;5043860;27;20469;-61
2023/02/07 13:02:03;;;;;;;8.97;8.10;;;10.30;99.90;;;;;;5035131;28;20462;-60
2023/02/07 13:04:50;;;;;;;8.00;7.20;;;9.70;99.90;;;;;;5048429;27;20788;-60
2023/02/07 13:07:31;;;;;;;7.67;6.80;;;9.50;99.90;;;;;;5034128;28;20502;-60
2023/02/07 13:10:09;;;;;;;7.37;6.67;;;9.70;99.90;;;;;;5034871;28;20967;-58
2023/02/07 13:12:45;;;;;;;7.10;6.40;;;10.00;99.90;;;;;;5034777;28;20498;-59
2023/02/07 13:15:22;;;;;;;7.10;6.43;;;10.30;99.90;;;;;;5034200;28;20496;-58
2023/02/07 13:17:55;;;;;;;7.43;6.83;;;10.40;99.90;;;;;;5033451;28;20895;-59
2023/02/07 13:20:38;;;;;;;8.33;7.43;;;10.20;99.90;;;;;;5030760;28;20459;-60
2023/02/07 13:23:13;;;;;;;8.10;7.10;;;10.10;99.90;;;;;;5033865;28;20461;-58
2023/02/07 13:25:44;;;;;;;9.17;8.20;;;9.90;99.90;;;;;;5032487;28;20614;-57
2023/02/07 13:28:18;;;;;;;8.40;7.53;;;9.80;99.90;;;;;;5032728;28;20463;-61
2023/02/07 13:30:48;;;;;;;7.83;7.03;;;9.70;99.90;;;;;;5065635;27;20464;-59
2023/02/07 13:33:27;;;;;;;9.67;6.70;;;9.40;99.90;;;;;;5051127;27;20490;-60
2023/02/07 13:35:58;;;;;;;7.97;7.20;;;9.10;99.90;;;;;;5021891;28;20476;-60
2023/02/07 13:38:38;;;;;;;9.27;6.97;;;8.50;99.90;;;;;;5033381;28;20463;-61
2023/02/07 13:41:12;;;;;;;9.43;6.97;;;8.50;99.90;;;;;;5033943;28;20550;-59
2023/02/07 13:43:52;;;;;;;8.73;7.93;;;8.70;99.90;;;;;;5033482;28;20487;-58
2023/02/07 13:46:45;;;;;;;8.40;7.50;;;8.70;99.90;;;;;;5033466;28;20467;-60
2023/02/07 13:49:20;;;;;;;8.57;7.47;;;8.50;99.90;;;;;;5031510;28;20723;-59
2023/02/07 13:51:56;;;;;;;9.43;6.57;;;8.20;99.90;;;;;;5035004;28;20842;-60
2023/02/07 13:54:35;;;;;;;8.20;7.30;;;8.00;99.90;;;;;;5035809;28;20501;-60
2023/02/07 14:00:08;;;;;;;7.80;7.00;;;7.60;99.90;;;;;;5034930;28;20421;-58
2023/02/07 14:02:43;;;;;;;11.03;6.77;;;7.40;99.90;;;;;;5035322;28;20539;-56
2023/02/07 14:05:18;;;;;;;10.50;8.27;;;7.10;99.90;;;;;;5035995;28;20462;-58
2023/02/07 14:07:54;;;;;;;10.80;7.30;;;7.00;99.90;;;;;;5034847;28;20482;-59
2023/02/07 14:10:40;;;;;;;10.43;7.07;;;6.80;99.90;;;;;;5032578;28;20524;-59
2023/02/07 14:13:33;;;;;;;7.63;6.80;;;6.60;99.90;;;;;;5035519;28;20491;-57
2023/02/07 14:16:04;;;;;;;8.83;6.70;;;6.30;99.90;;;;;;5035314;28;20470;-58
2023/02/07 14:18:47;;;;;;;7.97;7.17;;;6.00;99.90;;;;;;5035123;28;20471;-55
2023/02/07 14:21:32;;;;;;;7.87;7.07;;;6.00;99.90;;;;;;5032167;28;20478;-56
2023/02/07 14:24:29;;;;;;;8.60;6.20;;;6.00;99.90;;;;;;5034662;28;20459;-58
2023/02/07 14:27:20;;;;;;;6.97;5.90;;;6.00;99.90;;;;;;5035552;28;20869;-60
2023/02/07 14:30:20;;;;;;;7.40;6.30;;;6.00;99.90;;;;;;5034773;27;20433;-57
2023/02/07 14:33:15;;;;;;;7.63;6.70;;;5.90;99.90;;;;;;5034375;28;20460;-59
2023/02/07 14:36:18;;;;;;;9.10;7.03;;;5.80;99.90;;;;;;5035922;28;20947;-60
2023/02/07 14:39:01;;;;;;;7.60;6.90;;;5.60;99.90;;;;;;5033022;28;20506;-59
2023/02/07 14:41:32;;;;;;;8.30;6.53;;;5.60;99.90;;;;;;5034373;28;20463;-58
2023/02/07 14:44:01;;;;;;;6.37;5.27;;;5.60;99.90;;;;;;5030755;28;20558;-60
2023/02/07 14:46:33;;;;;;;6.07;5.07;;;5.50;99.90;;;;;;5034849;28;20459;-59
2023/02/07 14:49:02;;;;;;;5.70;4.60;;;5.50;99.90;;;;;;5028609;28;20475;-58
2023/02/07 14:51:42;;;;;;;4.90;3.90;;;5.60;99.90;;;;;;5034155;28;20554;-59
2023/02/07 14:54:16;;;;;;;6.00;3.90;;;5.60;99.90;;;;;;5033122;28;20494;-59
2023/02/07 14:56:56;;;;;;;4.47;3.93;;;5.60;99.90;;;;;;5027219;28;21050;-57
2023/02/07 14:59:32;;;;;;;10.93;8.83;;;5.60;99.90;;;;;;5032752;28;20477;-59
2023/02/07 15:02:31;;;;;;;10.40;7.77;;;5.60;99.90;;;;;;5033498;28;20462;-59
2023/02/07 15:04:59;;;;;;;7.73;5.50;;;5.60;99.90;;;;;;5033796;28;20548;-59
2023/02/07 15:07:28;;;;;;;8.93;6.70;;;5.60;99.90;;;;;;5031972;28;20455;-59
2023/02/07 15:09:55;;;;;;;8.40;5.97;;;5.50;99.90;;;;;;5033929;28;20961;-58
2023/02/07 15:12:27;;;;;;;6.20;5.33;;;5.40;99.90;;;;;;5032872;28;20848;-60
2023/02/07 15:14:56;;;;;;;9.87;6.70;;;5.40;99.90;;;;;;5033385;28;20587;-60
2023/02/07 15:17:26;;;;;;;9.17;7.30;;;5.40;99.90;;;;;;5034486;28;20756;-59
2023/02/07 15:19:56;;;;;;;8.80;6.93;;;5.30;99.90;;;;;;5033842;28;20463;-59
2023/02/07 15:22:28;;;;;;;7.73;6.60;;;5.20;99.90;;;;;;5034241;28;20495;-60
2023/02/07 15:24:57;;;;;;;9.57;6.97;;;5.20;99.90;;;;;;5034033;28;20461;-60
2023/02/07 15:27:26;;;;;;;7.73;5.87;;;5.10;99.90;;;;;;5034579;28;20481;-61
2023/02/07 15:29:56;;;;;;;8.10;5.90;;;5.00;99.90;;;;;;5034612;28;20467;-57
2023/02/07 15:32:26;;;;;;;13.37;7.30;;;4.90;99.90;;;;;;5034090;28;20466;-58
2023/02/07 15:34:53;;;;;;;9.83;7.30;;;4.80;99.90;;;;;;5034689;28;20531;-60
2023/02/07 15:37:23;;;;;;;9.50;7.70;;;4.80;99.90;;;;;;5034608;28;20627;-59
2023/02/07 15:39:53;;;;;;;11.37;7.00;;;4.70;99.90;;;;;;5034610;28;20948;-59
2023/02/07 15:42:21;;;;;;;10.20;7.37;;;4.60;99.90;;;;;;5034648;28;20930;-59
2023/02/07 15:44:51;;;;;;;8.27;7.10;;;4.50;99.90;;;;;;5032194;28;20502;-59
2023/02/07 15:47:35;;;;;;;10.00;7.93;;;4.50;99.90;;;;;;5032894;28;20438;-59
2023/02/07 15:50:06;;;;;;;10.23;7.20;;;4.50;99.90;;;;;;5033053;28;20907;-60
2023/02/07 15:52:36;;;;;;;9.70;7.60;;;4.40;99.90;;;;;;5032950;28;20455;-59
2023/02/07 15:55:16;;;;;;;13.10;8.33;;;4.40;99.90;;;;;;5032277;28;20509;-59
2023/02/07 15:57:45;;;;;;;8.23;6.80;;;4.30;99.90;;;;;;5032785;28;20945;-60
2023/02/07 16:00:18;;;;;;;10.63;7.50;;;4.20;99.90;;;;;;5033497;28;20471;-59
2023/02/07 16:02:53;;;;;;;8.97;8.07;;;4.10;99.90;;;;;;5033978;28;20466;-60
2023/02/07 16:05:23;;;;;;;9.73;7.77;;;4.10;99.90;;;;;;5034057;28;20465;-60
2023/02/07 16:07:51;;;;;;;12.43;7.53;;;4.00;99.90;;;;;;5032751;28;20562;-58
2023/02/07 16:10:33;;;;;;;10.50;7.73;;;3.80;99.90;;;;;;5032364;28;20467;-59
2023/02/07 16:13:01;;;;;;;8.37;7.47;;;3.80;99.90;;;;;;5032471;28;20495;-60
2023/02/07 16:15:31;;;;;;;8.40;7.07;;;3.70;99.90;;;;;;5032685;28;20524;-59
2023/02/07 16:17:59;;;;;;;10.90;8.20;;;3.70;99.90;;;;;;5032127;28;20441;-59
2023/02/07 16:20:27;;;;;;;8.80;7.73;;;3.70;99.90;;;;;;5032241;28;20463;-59
2023/02/07 16:22:58;;;;;;;10.73;8.10;;;3.50;99.90;;;;;;5034374;28;20459;-59
2023/02/07 16:25:29;;;;;;;9.97;8.17;;;3.50;99.90;;;;;;5033420;28;20770;-60
2023/02/07 16:27:57;;;;;;;10.40;8.07;;;3.40;99.90;;;;;;5031653;28;20907;-58
2023/02/07 16:30:29;;;;;;;9.80;8.50;;;3.40;99.90;;;;;;5030389;28;20538;-60
2023/02/07 16:32:56;;;;;;;11.30;8.30;;;3.30;99.90;;;;;;5029411;28;20451;-58
2023/02/07 16:35:25;;;;;;;11.93;8.20;;;3.10;99.90;;;;;;5032418;28;20501;-60
2023/02/07 16:37:53;;;;;;;12.30;9.70;;;3.10;99.90;;;;;;5029096;28;20460;-58
2023/02/07 16:40:22;;;;;;;11.80;8.70;;;3.00;99.90;;;;;;5032023;28;20470;-59
2023/02/07 16:42:52;;;;;;;11.87;9.00;;;3.00;99.90;;;;;;5033733;28;20463;-58
2023/02/07 16:45:23;;;;;;;10.93;8.10;;;3.00;99.90;;;;;;5033062;28;20444;-59
2023/02/07 16:47:50;;;;;;;12.40;9.00;;;2.90;99.90;;;;;;5030783;28;20470;-60
2023/02/07 16:50:19;;;;;;;12.83;9.20;;;2.80;99.90;;;;;;5030788;28;20469;-58
2023/02/07 16:52:48;;;;;;;13.83;9.57;;;2.70;99.90;;;;;;5031067;28;20584;-60
2023/02/07 16:55:15;;;;;;;14.17;9.90;;;2.70;99.90;;;;;;5032583;28;20532;-57
2023/02/07 16:57:43;;;;;;;12.23;9.43;;;2.60;99.90;;;;;;5034649;28;20892;-57
2023/02/07 17:00:18;;;;;;;13.10;9.53;;;2.50;99.90;;;;;;5034623;28;20477;-58
2023/02/07 17:02:47;;;;;;;11.40;9.40;;;2.50;99.90;;;;;;5032048;28;20470;-59
2023/02/07 17:05:14;;;;;;;12.30;9.30;;;2.40;99.90;;;;;;5034582;28;20901;-58
2023/02/07 17:07:42;;;;;;;13.13;9.87;;;2.30;99.90;;;;;;5033758;28;20539;-57
2023/02/07 17:10:23;;;;;;;13.63;10.30;;;2.30;99.90;;;;;;5031967;28;20839;-56
2023/02/07 17:12:50;;;;;;;15.27;10.20;;;2.30;99.90;;;;;;5031764;28;20892;-59
2023/02/07 17:15:19;;;;;;;15.60;10.20;;;2.20;99.90;;;;;;5034670;28;20581;-59
2023/02/07 17:17:46;;;;;;;13.67;9.50;;;2.10;99.90;;;;;;5033688;28;20537;-59
2023/02/07 17:20:21;;;;;;;19.03;10.10;;;2.10;99.90;;;;;;5035510;28;20557;-54
2023/02/07 17:22:49;;;;;;;11.80;9.93;;;2.00;99.90;;;;;;5033160;28;20459;-58
2023/02/07 17:25:16;;;;;;;12.40;9.80;;;2.00;99.90;;;;;;5034749;28;20764;-59
2023/02/07 17:27:43;;;;;;;11.63;9.87;;;1.90;99.90;;;;;;5037745;27;20546;-60
2023/02/07 17:30:17;;;;;;;11.90;9.93;;;1.80;99.90;;;;;;5042704;27;20474;-56
2023/02/07 17:32:46;;;;;;;13.10;9.73;;;1.70;99.90;;;;;;5031666;28;20485;-59
2023/02/07 17:35:14;;;;;;;14.90;10.17;;;1.70;99.90;;;;;;5033830;28;20454;-59
2023/02/07 17:37:41;;;;;;;11.70;9.83;;;1.70;99.90;;;;;;5034349;28;20459;-58
2023/02/07 17:40:24;;;;;;;11.83;9.67;;;1.60;99.90;;;;;;5035219;28;20547;-58
2023/02/07 17:42:51;;;;;;;12.70;10.10;;;1.50;99.90;;;;;;5032159;28;20531;-59
2023/02/07 17:45:18;;;;;;;15.40;10.47;;;1.40;99.90;;;;;;5033757;28;20425;-55
2023/02/07 17:47:47;;;;;;;11.77;9.40;;;1.40;99.90;;;;;;5030536;28;20844;-55
2023/02/07 17:50:17;;;;;;;14.83;11.30;;;1.30;99.90;;;;;;5033379;28;20550;-59
2023/02/07 17:52:45;;;;;;;14.50;11.23;;;1.20;99.90;;;;;;5030238;28;20438;-58
2023/02/07 17:55:12;;;;;;;15.30;12.13;;;1.20;99.90;;;;;;5033970;28;20491;-59
2023/02/07 17:57:40;;;;;;;13.60;10.20;;;1.10;99.90;;;;;;5034385;28;20806;-60
2023/02/07 18:00:18;;;;;;;13.57;10.33;;;1.00;99.90;;;;;;5034159;28;20563;-59
2023/02/07 18:02:47;;;;;;;14.83;10.47;;;0.90;99.90;;;;;;5031576;28;20558;-59
2023/02/07 18:05:16;;;;;;;14.83;11.87;;;0.90;99.90;;;;;;5035633;28;20923;-58
2023/02/07 18:07:43;;;;;;;13.50;9.40;;;0.90;99.90;;;;;;5032013;28;20459;-60
2023/02/07 18:10:12;;;;;;;13.27;10.27;;;0.80;99.90;;;;;;5035405;28;20945;-59
2023/02/07 18:12:41;;;;;;;15.10;10.67;;;0.80;99.90;;;;;;5035257;28;20464;-59
2023/02/07 18:15:09;;;;;;;16.50;9.90;;;0.70;99.90;;;;;;5035184;28;20483;-60
2023/02/07 18:17:37;;;;;;;15.80;10.57;;;0.70;99.90;;;;;;5034510;28;20770;-59
2023/02/07 18:20:09;;;;;;;14.87;11.50;;;0.50;99.90;;;;;;5032006;28;20584;-55
2023/02/07 18:22:37;;;;;;;15.20;11.83;;;0.40;99.90;;;;;;5034942;28;20528;-57
2023/02/07 18:25:05;;;;;;;16.37;12.33;;;0.20;99.90;;;;;;5032434;28;20455;-59
2023/02/07 18:27:33;;;;;;;19.07;13.00;;;0.20;99.90;;;;;;5034473;28;20459;-59
2023/02/07 18:30:01;;;;;;;19.57;13.37;;;0.20;99.90;;;;;;5033953;28;20538;-58
2023/02/07 18:32:28;;;;;;;18.70;13.70;;;0.10;99.90;;;;;;5034247;28;20451;-59
2023/02/07 18:34:55;;;;;;;19.40;13.70;;;0.00;99.90;;;;;;5034420;28;20555;-58
2023/02/07 18:37:25;;;;;;;13.13;11.53;;;0.10;99.90;;;;;;5033011;28;20445;-57
2023/02/07 18:39:52;;;;;;;16.70;13.00;;;0.00;99.90;;;;;;5031021;28;20951;-57
2023/02/07 18:42:20;;;;;;;18.70;12.40;;;0.10;99.90;;;;;;5034252;28;20738;-59
2023/02/07 18:44:47;;;;;;;15.90;12.70;;;0.10;99.90;;;;;;5033920;28;20508;-60
2023/02/07 18:47:15;;;;;;;15.83;12.07;;;-0.10;99.90;;;;;;5034588;28;20461;-57
2023/02/07 18:49:42;;;;;;;13.60;10.87;;;-0.20;99.90;;;;;;5034184;28;20980;-59
2023/02/07 18:52:09;;;;;;;17.10;12.83;;;-0.30;99.90;;;;;;5031412;28;20467;-59
2023/02/07 18:54:38;;;;;;;23.50;17.23;;;-0.30;99.90;;;;;;5033779;28;20491;-59
2023/02/07 18:57:05;;;;;;;23.00;17.23;;;-0.30;99.90;;;;;;5034335;28;20461;-59
2023/02/07 18:59:34;;;;;;;15.87;11.77;;;-0.40;99.90;;;;;;5034175;28;20486;-59
2023/02/07 19:02:02;;;;;;;17.40;12.13;;;-0.40;99.90;;;;;;5034033;28;20459;-59
2023/02/07 19:04:30;;;;;;;15.03;10.70;;;-0.50;99.90;;;;;;5032145;28;20821;-58
2023/02/07 19:06:58;;;;;;;12.93;9.77;;;-0.50;99.90;;;;;;5033776;28;20466;-57
2023/02/07 19:09:26;;;;;;;15.87;10.13;;;-0.60;99.90;;;;;;5033944;28;20503;-58
2023/02/07 19:11:57;;;;;;;16.07;9.43;;;-0.60;99.90;;;;;;5032246;28;20896;-60
2023/02/07 19:14:26;;;;;;;12.07;9.70;;;-0.50;99.90;;;;;;5032805;28;20556;-60
2023/02/07 19:16:55;;;;;;;12.70;9.37;;;-0.60;99.90;;;;;;5034241;28;20461;-61
2023/02/07 19:19:23;;;;;;;14.73;9.53;;;-0.70;99.90;;;;;;5033735;28;20459;-59
2023/02/07 19:21:51;;;;;;;16.27;9.40;;;-0.80;99.90;;;;;;5031123;28;20556;-58
2023/02/07 19:24:19;;;;;;;13.10;8.80;;;-0.70;99.90;;;;;;5033391;27;20568;-59
2023/02/07 19:26:47;;;;;;;14.50;10.20;;;-0.80;99.90;;;;;;5033501;28;20461;-60
2023/02/07 19:29:18;;;;;;;12.67;9.53;;;-0.90;99.90;;;;;;5033572;28;20464;-61
2023/02/07 19:31:45;;;;;;;13.10;10.03;;;-0.90;99.90;;;;;;5033948;28;20463;-61
2023/02/07 19:34:14;;;;;;;14.20;10.37;;;-0.90;99.90;;;;;;5033985;28;20992;-60
2023/02/07 19:36:41;;;;;;;13.17;10.07;;;-1.00;99.90;;;;;;5033284;28;20463;-61
2023/02/07 19:39:09;;;;;;;13.90;10.43;;;-0.90;99.90;;;;;;5032947;28;20489;-61
2023/02/07 19:41:36;;;;;;;14.73;10.20;;;-0.90;1.00;;;;;;5035667;28;20498;-61
2023/02/07 19:44:04;;;;;;;15.80;10.77;;;-0.90;1.00;;;;;;5047349;28;20554;-61
2023/02/07 19:46:33;;;;;;;14.30;10.73;;;-1.00;1.00;;;;;;5055164;27;20845;-61
2023/02/07 19:49:01;;;;;;;13.63;10.67;;;-1.00;99.90;;;;;;5060518;27;20472;-61
2023/02/07 19:51:30;;;;;;;13.43;11.10;;;-1.10;1.00;;;;;;5115691;27;20458;-61
2023/02/07 19:53:58;;;;;;;15.97;12.17;;;-1.10;1.00;;;;;;5076283;27;20465;-60
2023/02/07 19:56:30;;;;;;;13.20;10.33;;;-1.10;1.00;;;;;;5074069;27;21032;-61
2023/02/07 19:58:58;;;;;;;13.03;10.00;;;-1.10;1.00;;;;;;5044374;28;20539;-61